sensor_id;sensor_type;location;lat;lon;timestamp;P1;durP1;ratioP1;P2;durP2;ratioP2
1410;SDS011;700;51.906;8.404;2023-09-30T00:04:10;14.50;;;4.80;;
1410;SDS011;700;51.906;8.404;2023-09-30T00:09:13;9.03;;;3.80;;
1410;SDS011;700;51.906;8.404;2023-09-30T00:14:16;10.23;;;3.80;;
1410;SDS011;700;51.906;8.404;2023-09-30T00:19:19;12.37;;;4.03;;
1410;SDS011;700;51.906;8.404;2023-09-30T00:24:22;7.93;;;4.10;;
1410;SDS011;700;51.906;8.404;2023-09-30T00:29:23;7.53;;;3.50;;
1410;SDS011;700;51.906;8.404;2023-09-30T00:34:23;13.67;;;3.87;;
1410;SDS011;700;51.906;8.404;2023-09-30T00:39:26;10.17;;;3.53;;
1410;SDS011;700;51.906;8.404;2023-09-30T00:44:30;12.10;;;3.47;;
1410;SDS011;700;51.906;8.404;2023-09-30T00:49:31;8.90;;;3.60;;
1410;SDS011;700;51.906;8.404;2023-09-30T00:54:32;9.83;;;3.80;;
1410;SDS011;700;51.906;8.404;2023-09-30T00:59:35;9.17;;;3.30;;
1410;SDS011;700;51.906;8.404;2023-09-30T01:04:36;11.43;;;3.40;;
1410;SDS011;700;51.906;8.404;2023-09-30T01:09:38;11.30;;;4.10;;
1410;SDS011;700;51.906;8.404;2023-09-30T01:14:41;10.10;;;3.80;;
1410;SDS011;700;51.906;8.404;2023-09-30T01:19:42;10.40;;;4.20;;
1410;SDS011;700;51.906;8.404;2023-09-30T01:24:43;13.07;;;4.37;;
1410;SDS011;700;51.906;8.404;2023-09-30T01:29:44;11.17;;;4.03;;
1410;SDS011;700;51.906;8.404;2023-09-30T01:34:45;10.67;;;4.63;;
1410;SDS011;700;51.906;8.404;2023-09-30T01:39:48;13.07;;;4.60;;
1410;SDS011;700;51.906;8.404;2023-09-30T01:44:50;8.90;;;4.20;;
1410;SDS011;700;51.906;8.404;2023-09-30T01:49:53;9.03;;;3.30;;
1410;SDS011;700;51.906;8.404;2023-09-30T01:54:53;9.30;;;3.40;;
1410;SDS011;700;51.906;8.404;2023-09-30T01:59:56;9.43;;;3.47;;
1410;SDS011;700;51.906;8.404;2023-09-30T02:04:57;11.90;;;4.27;;
1410;SDS011;700;51.906;8.404;2023-09-30T02:09:58;8.73;;;3.33;;
1410;SDS011;700;51.906;8.404;2023-09-30T02:14:59;8.17;;;3.37;;
1410;SDS011;700;51.906;8.404;2023-09-30T02:20:02;9.23;;;3.33;;
1410;SDS011;700;51.906;8.404;2023-09-30T02:25:07;9.40;;;3.27;;
1410;SDS011;700;51.906;8.404;2023-09-30T02:30:09;12.40;;;3.87;;
1410;SDS011;700;51.906;8.404;2023-09-30T02:35:14;10.23;;;3.97;;
1410;SDS011;700;51.906;8.404;2023-09-30T02:40:17;7.73;;;3.50;;
1410;SDS011;700;51.906;8.404;2023-09-30T02:45:20;12.97;;;3.97;;
1410;SDS011;700;51.906;8.404;2023-09-30T02:50:21;9.60;;;3.80;;
1410;SDS011;700;51.906;8.404;2023-09-30T02:55:21;7.37;;;3.67;;
1410;SDS011;700;51.906;8.404;2023-09-30T03:00:22;7.30;;;3.07;;
1410;SDS011;700;51.906;8.404;2023-09-30T03:05:22;7.90;;;3.13;;
1410;SDS011;700;51.906;8.404;2023-09-30T03:10:23;12.60;;;4.00;;
1410;SDS011;700;51.906;8.404;2023-09-30T03:15:24;7.83;;;3.80;;
1410;SDS011;700;51.906;8.404;2023-09-30T03:20:24;9.20;;;4.07;;
1410;SDS011;700;51.906;8.404;2023-09-30T03:25:28;10.13;;;4.03;;
1410;SDS011;700;51.906;8.404;2023-09-30T03:30:30;8.87;;;3.30;;
1410;SDS011;700;51.906;8.404;2023-09-30T03:35:33;9.10;;;3.93;;
1410;SDS011;700;51.906;8.404;2023-09-30T03:40:36;9.77;;;4.23;;
1410;SDS011;700;51.906;8.404;2023-09-30T03:45:40;7.43;;;4.10;;
1410;SDS011;700;51.906;8.404;2023-09-30T03:50:43;7.97;;;4.50;;
1410;SDS011;700;51.906;8.404;2023-09-30T03:55:43;9.17;;;5.13;;
1410;SDS011;700;51.906;8.404;2023-09-30T04:00:44;8.53;;;4.27;;
1410;SDS011;700;51.906;8.404;2023-09-30T04:05:45;10.80;;;4.20;;
1410;SDS011;700;51.906;8.404;2023-09-30T04:10:53;11.80;;;4.43;;
1410;SDS011;700;51.906;8.404;2023-09-30T04:15:56;10.30;;;3.93;;
1410;SDS011;700;51.906;8.404;2023-09-30T04:21:00;10.43;;;4.37;;
1410;SDS011;700;51.906;8.404;2023-09-30T04:26:07;8.53;;;4.53;;
1410;SDS011;700;51.906;8.404;2023-09-30T04:31:09;6.27;;;4.00;;
1410;SDS011;700;51.906;8.404;2023-09-30T04:36:14;12.30;;;4.93;;
1410;SDS011;700;51.906;8.404;2023-09-30T04:41:15;10.63;;;4.43;;
1410;SDS011;700;51.906;8.404;2023-09-30T04:46:16;9.50;;;4.30;;
1410;SDS011;700;51.906;8.404;2023-09-30T04:51:20;12.83;;;4.53;;
1410;SDS011;700;51.906;8.404;2023-09-30T04:56:21;6.60;;;3.93;;
1410;SDS011;700;51.906;8.404;2023-09-30T05:01:25;9.93;;;4.23;;
1410;SDS011;700;51.906;8.404;2023-09-30T05:06:25;8.77;;;4.80;;
1410;SDS011;700;51.906;8.404;2023-09-30T05:11:26;10.90;;;4.40;;
1410;SDS011;700;51.906;8.404;2023-09-30T05:16:27;8.47;;;4.47;;
1410;SDS011;700;51.906;8.404;2023-09-30T05:21:29;11.03;;;4.80;;
1410;SDS011;700;51.906;8.404;2023-09-30T05:26:30;9.93;;;4.63;;
1410;SDS011;700;51.906;8.404;2023-09-30T05:31:30;11.30;;;4.20;;
1410;SDS011;700;51.906;8.404;2023-09-30T05:36:34;9.17;;;4.77;;
1410;SDS011;700;51.906;8.404;2023-09-30T05:41:35;9.33;;;4.40;;
1410;SDS011;700;51.906;8.404;2023-09-30T05:46:37;8.30;;;4.80;;
1410;SDS011;700;51.906;8.404;2023-09-30T05:51:38;11.23;;;5.63;;
1410;SDS011;700;51.906;8.404;2023-09-30T05:56:38;14.63;;;7.93;;
1410;SDS011;700;51.906;8.404;2023-09-30T06:01:45;9.80;;;5.57;;
1410;SDS011;700;51.906;8.404;2023-09-30T06:06:46;9.77;;;6.43;;
1410;SDS011;700;51.906;8.404;2023-09-30T06:11:46;11.40;;;5.70;;
1410;SDS011;700;51.906;8.404;2023-09-30T06:16:47;12.23;;;7.10;;
1410;SDS011;700;51.906;8.404;2023-09-30T06:21:50;15.20;;;8.07;;
1410;SDS011;700;51.906;8.404;2023-09-30T06:26:50;13.07;;;6.90;;
1410;SDS011;700;51.906;8.404;2023-09-30T06:31:54;12.77;;;8.37;;
1410;SDS011;700;51.906;8.404;2023-09-30T06:36:59;13.20;;;9.83;;
1410;SDS011;700;51.906;8.404;2023-09-30T06:42:00;12.27;;;8.70;;
1410;SDS011;700;51.906;8.404;2023-09-30T06:47:00;12.00;;;7.60;;
1410;SDS011;700;51.906;8.404;2023-09-30T06:52:01;15.70;;;7.23;;
1410;SDS011;700;51.906;8.404;2023-09-30T06:57:05;23.10;;;8.73;;
1410;SDS011;700;51.906;8.404;2023-09-30T07:02:05;12.63;;;8.30;;
1410;SDS011;700;51.906;8.404;2023-09-30T07:07:11;19.47;;;12.60;;
1410;SDS011;700;51.906;8.404;2023-09-30T07:12:11;11.87;;;8.37;;
1410;SDS011;700;51.906;8.404;2023-09-30T07:17:12;15.00;;;8.90;;
1410;SDS011;700;51.906;8.404;2023-09-30T07:22:13;12.67;;;8.90;;
1410;SDS011;700;51.906;8.404;2023-09-30T07:27:14;15.20;;;8.17;;
1410;SDS011;700;51.906;8.404;2023-09-30T07:32:16;14.33;;;8.90;;
1410;SDS011;700;51.906;8.404;2023-09-30T07:37:17;12.40;;;7.87;;
1410;SDS011;700;51.906;8.404;2023-09-30T07:42:18;16.50;;;8.47;;
1410;SDS011;700;51.906;8.404;2023-09-30T07:47:19;15.07;;;8.93;;
1410;SDS011;700;51.906;8.404;2023-09-30T07:52:20;15.50;;;9.07;;
1410;SDS011;700;51.906;8.404;2023-09-30T07:57:20;13.23;;;7.60;;
1410;SDS011;700;51.906;8.404;2023-09-30T08:02:23;19.00;;;8.80;;
1410;SDS011;700;51.906;8.404;2023-09-30T08:07:27;15.37;;;7.57;;
1410;SDS011;700;51.906;8.404;2023-09-30T08:12:28;12.27;;;7.40;;
1410;SDS011;700;51.906;8.404;2023-09-30T08:17:29;9.37;;;7.00;;
1410;SDS011;700;51.906;8.404;2023-09-30T08:22:29;11.77;;;6.43;;
1410;SDS011;700;51.906;8.404;2023-09-30T08:27:30;12.03;;;6.40;;
1410;SDS011;700;51.906;8.404;2023-09-30T08:32:32;10.97;;;7.93;;
1410;SDS011;700;51.906;8.404;2023-09-30T08:37:36;14.73;;;7.57;;
1410;SDS011;700;51.906;8.404;2023-09-30T08:42:38;18.60;;;9.13;;
1410;SDS011;700;51.906;8.404;2023-09-30T08:47:39;18.50;;;11.67;;
1410;SDS011;700;51.906;8.404;2023-09-30T08:52:43;7.80;;;5.67;;
1410;SDS011;700;51.906;8.404;2023-09-30T08:57:45;11.10;;;5.67;;
1410;SDS011;700;51.906;8.404;2023-09-30T09:02:50;13.77;;;7.23;;
1410;SDS011;700;51.906;8.404;2023-09-30T09:07:53;16.90;;;5.87;;
1410;SDS011;700;51.906;8.404;2023-09-30T09:12:58;12.37;;;5.30;;
1410;SDS011;700;51.906;8.404;2023-09-30T09:17:58;11.23;;;6.13;;
1410;SDS011;700;51.906;8.404;2023-09-30T09:23:04;8.47;;;5.87;;
1410;SDS011;700;51.906;8.404;2023-09-30T09:28:07;9.77;;;5.23;;
1410;SDS011;700;51.906;8.404;2023-09-30T09:33:07;8.23;;;5.10;;
1410;SDS011;700;51.906;8.404;2023-09-30T09:38:08;7.90;;;5.40;;
1410;SDS011;700;51.906;8.404;2023-09-30T09:43:09;8.37;;;4.90;;
1410;SDS011;700;51.906;8.404;2023-09-30T09:48:11;8.20;;;4.67;;
1410;SDS011;700;51.906;8.404;2023-09-30T09:53:12;7.63;;;4.57;;
1410;SDS011;700;51.906;8.404;2023-09-30T09:58:14;6.90;;;5.50;;
1410;SDS011;700;51.906;8.404;2023-09-30T10:03:16;10.00;;;4.60;;
1410;SDS011;700;51.906;8.404;2023-09-30T10:08:17;8.63;;;4.60;;
1410;SDS011;700;51.906;8.404;2023-09-30T10:19:23;8.07;;;4.67;;
1410;SDS011;700;51.906;8.404;2023-09-30T10:29:35;5.83;;;3.80;;
1410;SDS011;700;51.906;8.404;2023-09-30T10:34:46;7.77;;;4.13;;
1410;SDS011;700;51.906;8.404;2023-09-30T10:44:58;5.23;;;3.27;;
1410;SDS011;700;51.906;8.404;2023-09-30T10:49:59;12.33;;;5.50;;
1410;SDS011;700;51.906;8.404;2023-09-30T10:55:04;7.97;;;3.50;;
1410;SDS011;700;51.906;8.404;2023-09-30T11:00:10;7.63;;;3.40;;
1410;SDS011;700;51.906;8.404;2023-09-30T11:05:11;7.90;;;3.00;;
1410;SDS011;700;51.906;8.404;2023-09-30T11:10:17;5.50;;;2.83;;
1410;SDS011;700;51.906;8.404;2023-09-30T11:15:21;10.57;;;3.40;;
1410;SDS011;700;51.906;8.404;2023-09-30T11:20:21;4.67;;;2.60;;
1410;SDS011;700;51.906;8.404;2023-09-30T11:25:22;8.60;;;3.00;;
1410;SDS011;700;51.906;8.404;2023-09-30T11:30:24;5.50;;;2.87;;
1410;SDS011;700;51.906;8.404;2023-09-30T11:35:26;6.23;;;3.00;;
1410;SDS011;700;51.906;8.404;2023-09-30T11:40:28;6.73;;;2.97;;
1410;SDS011;700;51.906;8.404;2023-09-30T11:45:28;7.50;;;3.00;;
1410;SDS011;700;51.906;8.404;2023-09-30T11:50:49;6.80;;;2.80;;
1410;SDS011;700;51.906;8.404;2023-09-30T11:55:52;6.50;;;3.60;;
1410;SDS011;700;51.906;8.404;2023-09-30T12:01:01;5.30;;;3.03;;
1410;SDS011;700;51.906;8.404;2023-09-30T12:06:02;6.70;;;3.10;;
1410;SDS011;700;51.906;8.404;2023-09-30T12:11:03;7.00;;;3.20;;
1410;SDS011;700;51.906;8.404;2023-09-30T12:16:04;6.90;;;2.90;;
1410;SDS011;700;51.906;8.404;2023-09-30T12:21:07;8.57;;;6.90;;
1410;SDS011;700;51.906;8.404;2023-09-30T12:26:10;5.47;;;3.50;;
1410;SDS011;700;51.906;8.404;2023-09-30T12:31:14;7.73;;;2.80;;
1410;SDS011;700;51.906;8.404;2023-09-30T12:36:18;6.30;;;2.90;;
1410;SDS011;700;51.906;8.404;2023-09-30T12:41:19;5.30;;;3.07;;
1410;SDS011;700;51.906;8.404;2023-09-30T12:46:19;8.13;;;3.47;;
1410;SDS011;700;51.906;8.404;2023-09-30T12:51:22;5.20;;;2.73;;
1410;SDS011;700;51.906;8.404;2023-09-30T12:56:23;5.93;;;2.60;;
1410;SDS011;700;51.906;8.404;2023-09-30T13:01:24;5.93;;;2.80;;
1410;SDS011;700;51.906;8.404;2023-09-30T13:06:31;5.37;;;2.70;;
1410;SDS011;700;51.906;8.404;2023-09-30T13:11:35;4.90;;;2.20;;
1410;SDS011;700;51.906;8.404;2023-09-30T13:16:35;6.10;;;2.80;;
1410;SDS011;700;51.906;8.404;2023-09-30T13:21:36;6.77;;;2.50;;
1410;SDS011;700;51.906;8.404;2023-09-30T13:26:37;3.87;;;2.33;;
1410;SDS011;700;51.906;8.404;2023-09-30T13:31:37;6.47;;;3.00;;
1410;SDS011;700;51.906;8.404;2023-09-30T13:36:38;4.40;;;2.00;;
1410;SDS011;700;51.906;8.404;2023-09-30T13:41:39;5.33;;;2.77;;
1410;SDS011;700;51.906;8.404;2023-09-30T13:46:40;5.50;;;2.90;;
1410;SDS011;700;51.906;8.404;2023-09-30T13:51:42;3.60;;;2.40;;
1410;SDS011;700;51.906;8.404;2023-09-30T13:56:43;4.50;;;2.80;;
1410;SDS011;700;51.906;8.404;2023-09-30T14:01:46;5.20;;;3.23;;
1410;SDS011;700;51.906;8.404;2023-09-30T14:06:46;4.17;;;2.60;;
1410;SDS011;700;51.906;8.404;2023-09-30T14:11:49;8.20;;;4.47;;
1410;SDS011;700;51.906;8.404;2023-09-30T14:16:50;5.43;;;3.30;;
1410;SDS011;700;51.906;8.404;2023-09-30T14:21:53;4.97;;;2.60;;
1410;SDS011;700;51.906;8.404;2023-09-30T14:26:54;5.67;;;2.83;;
1410;SDS011;700;51.906;8.404;2023-09-30T14:32:00;4.80;;;2.67;;
1410;SDS011;700;51.906;8.404;2023-09-30T14:37:02;6.10;;;2.70;;
1410;SDS011;700;51.906;8.404;2023-09-30T14:42:05;5.70;;;3.17;;
1410;SDS011;700;51.906;8.404;2023-09-30T14:47:06;6.23;;;3.00;;
1410;SDS011;700;51.906;8.404;2023-09-30T14:52:07;6.20;;;3.10;;
1410;SDS011;700;51.906;8.404;2023-09-30T14:57:09;7.23;;;3.17;;
1410;SDS011;700;51.906;8.404;2023-09-30T15:02:10;7.30;;;3.43;;
1410;SDS011;700;51.906;8.404;2023-09-30T15:07:13;5.67;;;2.70;;
1410;SDS011;700;51.906;8.404;2023-09-30T15:12:14;5.60;;;3.37;;
1410;SDS011;700;51.906;8.404;2023-09-30T15:17:14;4.57;;;2.73;;
1410;SDS011;700;51.906;8.404;2023-09-30T15:22:17;4.60;;;2.40;;
1410;SDS011;700;51.906;8.404;2023-09-30T15:27:20;6.03;;;2.90;;
1410;SDS011;700;51.906;8.404;2023-09-30T15:32:27;7.57;;;3.20;;
1410;SDS011;700;51.906;8.404;2023-09-30T15:37:30;6.37;;;2.50;;
1410;SDS011;700;51.906;8.404;2023-09-30T15:42:34;7.03;;;2.00;;
1410;SDS011;700;51.906;8.404;2023-09-30T15:47:38;5.60;;;2.53;;
1410;SDS011;700;51.906;8.404;2023-09-30T15:52:39;4.33;;;2.20;;
1410;SDS011;700;51.906;8.404;2023-09-30T15:57:40;6.77;;;2.73;;
1410;SDS011;700;51.906;8.404;2023-09-30T16:02:42;5.00;;;2.87;;
1410;SDS011;700;51.906;8.404;2023-09-30T16:07:43;6.70;;;2.70;;
1410;SDS011;700;51.906;8.404;2023-09-30T16:12:46;6.73;;;3.30;;
1410;SDS011;700;51.906;8.404;2023-09-30T16:17:52;5.73;;;3.07;;
1410;SDS011;700;51.906;8.404;2023-09-30T16:22:53;5.33;;;2.93;;
1410;SDS011;700;51.906;8.404;2023-09-30T16:27:54;6.07;;;3.47;;
1410;SDS011;700;51.906;8.404;2023-09-30T16:32:57;6.03;;;3.13;;
1410;SDS011;700;51.906;8.404;2023-09-30T16:38:03;6.70;;;3.13;;
1410;SDS011;700;51.906;8.404;2023-09-30T16:43:03;6.97;;;3.70;;
1410;SDS011;700;51.906;8.404;2023-09-30T16:48:04;5.23;;;3.20;;
1410;SDS011;700;51.906;8.404;2023-09-30T16:53:05;9.67;;;3.73;;
1410;SDS011;700;51.906;8.404;2023-09-30T16:58:06;7.93;;;3.20;;
1410;SDS011;700;51.906;8.404;2023-09-30T17:03:07;8.57;;;3.50;;
1410;SDS011;700;51.906;8.404;2023-09-30T17:08:08;6.77;;;3.50;;
1410;SDS011;700;51.906;8.404;2023-09-30T17:13:13;8.47;;;3.87;;
1410;SDS011;700;51.906;8.404;2023-09-30T17:18:14;7.97;;;4.00;;
1410;SDS011;700;51.906;8.404;2023-09-30T17:23:17;6.93;;;4.23;;
1410;SDS011;700;51.906;8.404;2023-09-30T17:28:18;8.23;;;3.53;;
1410;SDS011;700;51.906;8.404;2023-09-30T17:33:19;6.83;;;4.03;;
1410;SDS011;700;51.906;8.404;2023-09-30T17:38:20;6.60;;;5.00;;
1410;SDS011;700;51.906;8.404;2023-09-30T17:43:20;7.87;;;4.43;;
1410;SDS011;700;51.906;8.404;2023-09-30T17:48:23;10.73;;;4.70;;
1410;SDS011;700;51.906;8.404;2023-09-30T17:53:24;6.43;;;4.30;;
1410;SDS011;700;51.906;8.404;2023-09-30T17:58:24;8.93;;;4.90;;
1410;SDS011;700;51.906;8.404;2023-09-30T18:03:25;6.00;;;4.20;;
1410;SDS011;700;51.906;8.404;2023-09-30T18:08:28;7.40;;;4.37;;
1410;SDS011;700;51.906;8.404;2023-09-30T18:13:34;11.37;;;4.50;;
1410;SDS011;700;51.906;8.404;2023-09-30T18:18:37;10.93;;;5.40;;
1410;SDS011;700;51.906;8.404;2023-09-30T18:23:38;5.33;;;4.30;;
1410;SDS011;700;51.906;8.404;2023-09-30T18:28:41;6.67;;;4.60;;
1410;SDS011;700;51.906;8.404;2023-09-30T18:33:43;11.47;;;5.60;;
1410;SDS011;700;51.906;8.404;2023-09-30T18:38:44;8.40;;;5.00;;
1410;SDS011;700;51.906;8.404;2023-09-30T18:43:46;6.57;;;4.70;;
1410;SDS011;700;51.906;8.404;2023-09-30T18:48:47;9.70;;;5.10;;
1410;SDS011;700;51.906;8.404;2023-09-30T18:53:47;7.40;;;4.40;;
1410;SDS011;700;51.906;8.404;2023-09-30T18:58:51;6.60;;;4.67;;
1410;SDS011;700;51.906;8.404;2023-09-30T19:03:53;10.87;;;4.70;;
1410;SDS011;700;51.906;8.404;2023-09-30T19:08:57;7.20;;;5.00;;
1410;SDS011;700;51.906;8.404;2023-09-30T19:14:02;8.20;;;4.57;;
1410;SDS011;700;51.906;8.404;2023-09-30T19:19:08;8.70;;;5.10;;
1410;SDS011;700;51.906;8.404;2023-09-30T19:24:09;9.80;;;5.13;;
1410;SDS011;700;51.906;8.404;2023-09-30T19:29:09;9.40;;;7.17;;
1410;SDS011;700;51.906;8.404;2023-09-30T19:34:10;10.63;;;7.90;;
1410;SDS011;700;51.906;8.404;2023-09-30T19:39:14;9.30;;;6.17;;
1410;SDS011;700;51.906;8.404;2023-09-30T19:44:17;9.13;;;5.03;;
1410;SDS011;700;51.906;8.404;2023-09-30T19:49:17;9.73;;;5.10;;
1410;SDS011;700;51.906;8.404;2023-09-30T19:54:20;9.50;;;5.93;;
1410;SDS011;700;51.906;8.404;2023-09-30T19:59:21;6.03;;;4.57;;
1410;SDS011;700;51.906;8.404;2023-09-30T20:04:22;8.50;;;4.60;;
1410;SDS011;700;51.906;8.404;2023-09-30T20:09:23;8.47;;;5.00;;
1410;SDS011;700;51.906;8.404;2023-09-30T20:14:26;6.10;;;4.70;;
1410;SDS011;700;51.906;8.404;2023-09-30T20:19:29;5.33;;;4.60;;
1410;SDS011;700;51.906;8.404;2023-09-30T20:24:30;7.87;;;4.70;;
1410;SDS011;700;51.906;8.404;2023-09-30T20:29:31;7.40;;;4.90;;
1410;SDS011;700;51.906;8.404;2023-09-30T20:34:34;7.27;;;4.87;;
1410;SDS011;700;51.906;8.404;2023-09-30T20:39:34;8.57;;;5.23;;
1410;SDS011;700;51.906;8.404;2023-09-30T20:44:35;8.00;;;5.60;;
1410;SDS011;700;51.906;8.404;2023-09-30T20:49:36;8.87;;;5.47;;
1410;SDS011;700;51.906;8.404;2023-09-30T20:54:41;7.20;;;5.70;;
1410;SDS011;700;51.906;8.404;2023-09-30T20:59:42;9.97;;;6.17;;
1410;SDS011;700;51.906;8.404;2023-09-30T21:04:45;8.17;;;5.60;;
1410;SDS011;700;51.906;8.404;2023-09-30T21:09:48;11.77;;;6.40;;
1410;SDS011;700;51.906;8.404;2023-09-30T21:14:49;9.60;;;5.60;;
1410;SDS011;700;51.906;8.404;2023-09-30T21:19:50;7.93;;;5.93;;
1410;SDS011;700;51.906;8.404;2023-09-30T21:24:50;7.70;;;6.40;;
1410;SDS011;700;51.906;8.404;2023-09-30T21:29:51;8.23;;;5.90;;
1410;SDS011;700;51.906;8.404;2023-09-30T21:34:54;8.80;;;5.57;;
1410;SDS011;700;51.906;8.404;2023-09-30T21:39:54;12.30;;;7.23;;
1410;SDS011;700;51.906;8.404;2023-09-30T21:44:55;8.73;;;6.37;;
1410;SDS011;700;51.906;8.404;2023-09-30T21:49:58;6.83;;;6.13;;
1410;SDS011;700;51.906;8.404;2023-09-30T21:55:04;10.27;;;7.07;;
1410;SDS011;700;51.906;8.404;2023-09-30T22:00:09;13.97;;;7.50;;
1410;SDS011;700;51.906;8.404;2023-09-30T22:05:26;9.87;;;6.97;;
1410;SDS011;700;51.906;8.404;2023-09-30T22:10:27;7.40;;;5.43;;
1410;SDS011;700;51.906;8.404;2023-09-30T22:15:30;9.63;;;5.83;;
1410;SDS011;700;51.906;8.404;2023-09-30T22:20:35;10.87;;;5.90;;
1410;SDS011;700;51.906;8.404;2023-09-30T22:25:36;7.93;;;5.40;;
1410;SDS011;700;51.906;8.404;2023-09-30T22:30:39;8.20;;;5.30;;
1410;SDS011;700;51.906;8.404;2023-09-30T22:35:40;7.67;;;5.93;;
1410;SDS011;700;51.906;8.404;2023-09-30T22:40:40;8.03;;;5.37;;
1410;SDS011;700;51.906;8.404;2023-09-30T22:45:42;8.33;;;5.50;;
1410;SDS011;700;51.906;8.404;2023-09-30T22:50:42;10.13;;;6.50;;
1410;SDS011;700;51.906;8.404;2023-09-30T22:55:45;7.60;;;6.10;;
1410;SDS011;700;51.906;8.404;2023-09-30T23:00:46;8.23;;;5.93;;
1410;SDS011;700;51.906;8.404;2023-09-30T23:05:47;11.80;;;7.40;;
1410;SDS011;700;51.906;8.404;2023-09-30T23:10:48;11.67;;;6.53;;
1410;SDS011;700;51.906;8.404;2023-09-30T23:15:49;9.90;;;6.83;;
1410;SDS011;700;51.906;8.404;2023-09-30T23:20:50;8.53;;;7.10;;
1410;SDS011;700;51.906;8.404;2023-09-30T23:25:52;7.30;;;5.33;;
1410;SDS011;700;51.906;8.404;2023-09-30T23:30:54;7.60;;;5.90;;
1410;SDS011;700;51.906;8.404;2023-09-30T23:35:55;8.40;;;6.27;;
1410;SDS011;700;51.906;8.404;2023-09-30T23:40:56;8.23;;;6.53;;
1410;SDS011;700;51.906;8.404;2023-09-30T23:46:00;12.17;;;6.50;;
1410;SDS011;700;51.906;8.404;2023-09-30T23:51:04;9.60;;;7.10;;
1410;SDS011;700;51.906;8.404;2023-09-30T23:56:08;11.70;;;7.23;;
